createdAt,value
2023-03-29T00:00:38.298Z,69.6528
2023-03-29T00:02:41.472Z,71.3267
2023-03-29T00:03:43.047Z,73.0766
2023-03-29T00:04:43.004Z,73.6161
2023-03-29T00:05:43.039Z,75.0952
2023-03-29T00:06:43.049Z,76.4481
2023-03-29T00:07:44.268Z,77.7731
2023-03-29T00:08:44.394Z,77.4532
2023-03-29T00:09:45.642Z,77.8182
2023-03-29T00:10:45.732Z,78.5237
2023-03-29T00:11:46.953Z,77.8921
2023-03-29T00:12:48.283Z,79.1613
2023-03-29T00:13:49.526Z,77.4347
2023-03-29T00:14:50.929Z,74.0553
2023-03-29T00:15:52.111Z,75.8173
2023-03-29T00:16:53.690Z,75.3997
2023-03-29T00:17:55.082Z,72.9063
2023-03-29T00:18:55.172Z,73.6959
2023-03-29T00:19:56.427Z,73.9529
2023-03-29T00:20:57.813Z,72.8832
2023-03-29T00:21:59.037Z,73.0234
2023-03-29T00:22:59.476Z,73.4009
2023-03-29T00:24:00.674Z,72.9714
2023-03-29T00:25:00.714Z,72.7928
2023-03-29T00:26:02.031Z,72.1948
2023-03-29T00:27:03.565Z,72.1458
2023-03-29T00:28:04.854Z,73.5367
2023-03-29T00:29:06.219Z,75.1569
2023-03-29T00:30:07.429Z,71.7459
2023-03-29T00:31:08.898Z,73.2321
2023-03-29T00:32:10.207Z,70.9371
2023-03-29T00:33:10.357Z,70.0229
2023-03-29T00:34:11.622Z,67.2916
2023-03-29T00:35:11.631Z,64.6463
2023-03-29T00:36:12.907Z,67.9347
2023-03-29T00:37:12.974Z,69.6149
2023-03-29T00:38:14.181Z,68.8167
2023-03-29T00:39:15.492Z,69.1398
2023-03-29T00:40:16.803Z,66.7088
2023-03-29T00:41:17.186Z,69.6298
2023-03-29T00:42:18.386Z,69.6199
2023-03-29T00:43:18.479Z,68.9148
2023-03-29T00:44:19.791Z,65.2690
2023-03-29T00:45:21.228Z,65.6121
2023-03-29T00:46:22.659Z,64.3701
2023-03-29T00:47:22.957Z,65.9505
2023-03-29T00:48:24.369Z,67.2847
2023-03-29T00:49:24.369Z,67.0517
2023-03-29T00:50:25.571Z,66.8297
2023-03-29T00:51:26.956Z,68.2174
2023-03-29T00:52:28.231Z,68.5921
2023-03-29T00:53:29.679Z,69.5805
2023-03-29T00:54:30.959Z,69.7557
2023-03-29T00:55:32.392Z,68.0333
2023-03-29T00:56:32.488Z,67.8188
2023-03-29T00:57:34.012Z,65.7837
2023-03-29T00:58:35.246Z,65.4492
2023-03-29T00:59:36.724Z,64.9091
2023-03-29T01:00:38.048Z,67.1094
2023-03-29T01:01:38.179Z,67.0434
2023-03-29T01:02:38.456Z,65.3578
2023-03-29T01:03:40.163Z,63.1242
2023-03-29T01:04:41.444Z,63.3136
2023-03-29T01:05:42.750Z,63.6202
2023-03-29T01:06:43.864Z,63.3123
2023-03-29T01:07:44.524Z,63.8877
2023-03-29T01:08:45.745Z,65.6201
2023-03-29T01:09:45.852Z,64.6414
2023-03-29T01:10:47.126Z,64.8294
2023-03-29T01:11:48.483Z,65.3349
2023-03-29T01:12:49.715Z,65.6721
2023-03-29T01:13:51.205Z,66.2626
2023-03-29T01:14:52.484Z,66.6538
2023-03-29T01:15:53.932Z,66.7222
2023-03-29T01:16:55.338Z,66.2693
2023-03-29T01:17:55.683Z,67.8584
2023-03-29T01:18:55.798Z,67.2106
2023-03-29T01:29:06.493Z,64.8574
2023-03-29T01:30:07.869Z,65.9949
2023-03-29T01:31:09.164Z,66.5091
2023-03-29T01:32:09.230Z,64.8638
2023-03-29T01:33:10.549Z,63.9997
2023-03-29T01:34:11.913Z,62.9187
2023-03-29T01:35:11.990Z,64.1949
2023-03-29T01:36:13.538Z,65.4170
2023-03-29T01:37:14.756Z,66.4929
2023-03-29T01:38:16.127Z,66.0320
2023-03-29T01:39:17.396Z,67.2204
2023-03-29T01:40:18.736Z,66.7504
2023-03-29T01:41:20.038Z,63.8061
2023-03-29T01:42:21.529Z,63.6608
2023-03-29T01:43:23.553Z,64.4579
2023-03-29T01:44:23.385Z,66.0378
2023-03-29T01:45:24.715Z,65.2529
2023-03-29T01:46:24.817Z,65.4509
2023-03-29T01:47:24.892Z,65.0169
2023-03-29T01:48:26.106Z,64.7670
2023-03-29T01:49:27.413Z,64.7360
2023-03-29T01:50:28.627Z,64.5751
2023-03-29T01:51:29.950Z,66.5967
2023-03-29T01:52:31.202Z,66.0988
2023-03-29T01:53:31.245Z,66.4519
2023-03-29T01:54:32.612Z,66.6215
2023-03-29T02:04:41.706Z,68.2522
2023-03-29T02:05:41.763Z,66.9678
2023-03-29T02:06:42.986Z,66.2660
2023-03-29T02:07:44.301Z,68.0825
2023-03-29T02:08:45.526Z,68.1377
2023-03-29T02:09:45.589Z,66.1593
2023-03-29T02:10:45.714Z,66.0698
2023-03-29T02:11:47.163Z,66.2840
2023-03-29T02:12:48.534Z,69.2652
2023-03-29T02:13:48.471Z,66.6521
2023-03-29T02:14:48.550Z,65.5946
2023-03-29T02:15:50.041Z,66.2409
2023-03-29T02:16:50.082Z,69.1096
2023-03-29T02:17:51.428Z,71.2629
2023-03-29T02:18:51.702Z,68.8979
2023-03-29T02:19:53.069Z,67.0316
2023-03-29T02:20:53.159Z,68.2129
2023-03-29T02:21:53.144Z,71.7048
2023-03-29T02:22:54.438Z,72.2491
2023-03-29T02:28:59.466Z,67.6293
2023-03-29T02:29:59.500Z,69.8937
2023-03-29T02:31:01.045Z,69.0971
2023-03-29T02:32:01.704Z,69.3350
2023-03-29T02:33:01.777Z,67.8802
2023-03-29T02:34:01.870Z,67.9112
2023-03-29T02:35:01.908Z,67.7587
2023-03-29T02:36:02.023Z,68.7210
2023-03-29T02:37:02.130Z,67.2463
2023-03-29T02:38:03.530Z,69.5163
2023-03-29T02:39:03.684Z,69.2656
2023-03-29T02:40:04.986Z,66.1369
2023-03-29T02:41:06.493Z,66.2417
2023-03-29T02:42:07.785Z,65.5438
2023-03-29T02:44:09.035Z,70.1405
2023-03-29T02:45:10.376Z,72.3500
2023-03-29T02:46:10.472Z,72.8909
2023-03-29T02:47:10.558Z,69.8905
2023-03-29T02:48:10.669Z,67.2922
2023-03-29T02:49:12.038Z,68.8463
2023-03-29T02:50:13.702Z,70.2135
2023-03-29T02:51:15.916Z,67.8617
2023-03-29T02:52:15.922Z,70.4659
2023-03-29T02:53:15.955Z,68.5873
2023-03-29T02:54:17.338Z,68.7253
2023-03-29T02:55:17.423Z,66.1327
2023-03-29T02:56:18.638Z,68.8728
2023-03-29T02:57:20.221Z,73.3694
2023-03-29T02:58:20.236Z,73.5867
2023-03-29T02:59:21.580Z,72.8878
2023-03-29T03:00:21.672Z,74.1112
2023-03-29T03:01:23.092Z,70.9999
2023-03-29T03:02:23.335Z,73.4518
2023-03-29T03:03:23.954Z,73.6103
2023-03-29T03:04:24.308Z,71.8656
2023-03-29T03:05:25.614Z,70.3917
2023-03-29T03:06:25.752Z,71.3425
2023-03-29T03:07:27.024Z,69.9719
2023-03-29T03:09:29.787Z,66.7124
2023-03-29T03:11:31.124Z,69.2382
2023-03-29T03:12:31.477Z,68.9513
2023-03-29T03:13:32.753Z,67.7150
2023-03-29T03:14:33.101Z,68.0762
2023-03-29T03:15:34.401Z,68.8119
2023-03-29T03:16:34.865Z,69.2501
2023-03-29T03:17:34.856Z,71.7569
2023-03-29T03:18:36.149Z,72.4056
2023-03-29T03:19:36.286Z,71.2382
2023-03-29T03:20:37.553Z,71.1012
2023-03-29T03:21:38.538Z,70.1335
2023-03-29T03:22:39.867Z,72.7129
2023-03-29T03:23:39.981Z,71.9227
2023-03-29T03:27:42.479Z,70.2739
2023-03-29T03:28:42.539Z,70.7952
2023-03-29T03:29:43.922Z,70.4323
2023-03-29T03:30:44.086Z,68.8500
2023-03-29T03:31:44.191Z,64.3774
2023-03-29T03:32:44.304Z,63.8803
2023-03-29T03:33:45.638Z,66.9396
2023-03-29T03:34:47.182Z,67.6018
2023-03-29T03:35:48.512Z,67.5086
2023-03-29T03:36:48.633Z,67.3734
2023-03-29T03:37:49.942Z,69.7301
2023-03-29T03:38:51.442Z,71.0966
2023-03-29T03:39:52.731Z,69.5053
2023-03-29T03:41:55.400Z,67.0084
2023-03-29T03:42:55.759Z,67.5440
2023-03-29T03:43:56.277Z,69.2371
2023-03-29T03:44:56.324Z,69.0368
2023-03-29T03:45:56.586Z,68.2737
2023-03-29T03:46:57.090Z,69.5193
2023-03-29T03:47:57.200Z,67.9714
2023-03-29T03:48:57.383Z,70.7868
2023-03-29T03:49:57.417Z,71.9143
2023-03-29T03:50:57.441Z,73.1884
2023-03-29T03:51:58.788Z,71.6333
2023-03-29T03:52:58.928Z,71.4083
2023-03-29T03:54:00.250Z,69.8218
2023-03-29T03:55:01.789Z,71.2662
2023-03-29T03:56:03.148Z,72.3844
2023-03-29T03:57:04.825Z,70.0762
2023-03-29T03:58:06.109Z,69.5803
2023-03-29T03:59:06.341Z,70.7203
2023-03-29T04:00:07.692Z,72.2361
2023-03-29T04:01:07.680Z,69.0869
2023-03-29T04:02:07.824Z,67.8758
2023-03-29T04:03:08.093Z,67.4541
2023-03-29T04:04:09.167Z,68.3032
2023-03-29T04:05:09.459Z,70.2794
2023-03-29T04:06:09.495Z,71.5873
2023-03-29T04:07:10.744Z,69.4229
2023-03-29T04:08:12.158Z,67.1703
2023-03-29T04:09:13.480Z,70.3586
2023-03-29T04:10:13.640Z,71.3675
2023-03-29T04:11:14.909Z,71.6207
2023-03-29T04:12:15.031Z,72.9169
2023-03-29T04:13:16.337Z,67.4736
2023-03-29T04:14:17.840Z,65.6912
2023-03-29T04:15:17.855Z,67.7181
2023-03-29T04:16:18.067Z,68.2138
2023-03-29T04:17:18.189Z,69.3644
2023-03-29T04:18:18.770Z,66.5229
2023-03-29T04:19:20.085Z,67.9079
2023-03-29T04:20:20.389Z,68.1017
2023-03-29T04:21:21.659Z,67.7604
2023-03-29T04:22:21.915Z,68.1677
2023-03-29T04:34:35.111Z,65.7619
2023-03-29T04:35:35.523Z,64.5057
2023-03-29T04:36:36.744Z,65.5403
2023-03-29T04:37:38.372Z,66.5820
2023-03-29T04:38:38.367Z,68.1426
2023-03-29T04:39:38.593Z,68.0560
2023-03-29T04:40:38.681Z,66.0480
2023-03-29T04:41:40.040Z,67.7048
2023-03-29T04:42:40.082Z,67.5126
2023-03-29T04:43:41.452Z,65.9718
2023-03-29T04:44:42.981Z,65.1450
2023-03-29T04:45:43.017Z,66.3022
2023-03-29T04:46:43.247Z,64.1114
2023-03-29T04:47:43.281Z,65.5492
2023-03-29T04:48:43.308Z,66.7191
2023-03-29T04:49:43.433Z,68.2224
2023-03-29T04:50:44.674Z,67.1712
2023-03-29T04:51:44.998Z,65.1553
2023-03-29T04:52:46.546Z,61.4577
2023-03-29T04:53:46.669Z,61.1461
2023-03-29T04:54:47.978Z,60.5606
2023-03-29T04:55:48.089Z,58.4799
2023-03-29T04:56:49.431Z,57.5373
2023-03-29T04:57:49.512Z,57.0840
2023-03-29T04:58:50.772Z,58.0462
2023-03-29T04:59:52.113Z,58.2198
2023-03-29T05:00:52.280Z,57.1764
2023-03-29T05:01:52.348Z,57.8197
2023-03-29T05:02:52.650Z,58.5853
2023-03-29T05:03:52.761Z,59.1211
2023-03-29T05:04:53.157Z,58.1631
2023-03-29T05:05:53.240Z,58.2484
2023-03-29T05:06:53.422Z,58.3836
2023-03-29T05:07:54.833Z,58.6533
2023-03-29T05:08:55.226Z,59.0047
2023-03-29T05:09:55.460Z,59.0398
2023-03-29T05:10:55.773Z,57.8530
2023-03-29T05:11:55.983Z,57.0814
2023-03-29T05:12:56.097Z,57.3982
2023-03-29T05:13:56.218Z,57.3626
2023-03-29T05:14:56.463Z,57.4909
2023-03-29T05:15:57.360Z,58.8894
2023-03-29T05:16:57.594Z,60.7831
2023-03-29T05:17:58.186Z,59.8160
2023-03-29T05:18:58.585Z,57.3039
2023-03-29T05:19:59.171Z,57.9394
2023-03-29T05:20:59.878Z,58.9502
2023-03-29T05:22:00.594Z,58.2541
2023-03-29T05:23:00.642Z,58.0851
2023-03-29T05:24:01.941Z,59.4668
2023-03-29T05:25:02.110Z,59.3515
2023-03-29T05:26:03.451Z,59.4552
2023-03-29T05:27:03.610Z,60.4071
2023-03-29T05:28:03.679Z,60.5505
2023-03-29T05:29:03.640Z,60.5218
2023-03-29T05:30:03.777Z,59.4929
2023-03-29T05:31:04.273Z,59.9734
2023-03-29T05:32:04.853Z,59.3845
2023-03-29T05:33:04.885Z,59.0777
2023-03-29T05:34:06.363Z,59.6330
2023-03-29T05:35:06.472Z,58.2895
2023-03-29T05:36:06.823Z,57.5699
2023-03-29T05:37:07.086Z,58.0862
2023-03-29T05:38:07.248Z,63.0885
2023-03-29T05:39:07.323Z,62.5978
2023-03-29T05:40:08.127Z,62.7971
2023-03-29T05:41:09.284Z,59.2929
2023-03-29T05:42:09.579Z,59.2537
2023-03-29T05:43:09.458Z,59.3981
2023-03-29T05:44:09.624Z,59.3323
2023-03-29T05:46:10.862Z,58.8731
2023-03-29T05:47:11.214Z,60.6221
2023-03-29T05:48:11.290Z,60.5267
2023-03-29T05:49:11.546Z,59.4672
2023-03-29T05:50:11.678Z,60.6333
2023-03-29T05:51:12.552Z,59.6160
2023-03-29T05:52:12.717Z,59.6032
2023-03-29T05:53:12.874Z,59.2675
2023-03-29T05:54:14.248Z,60.5169
2023-03-29T05:55:14.381Z,61.0547
2023-03-29T05:56:14.494Z,61.9893
2023-03-29T05:57:14.706Z,61.3885
2023-03-29T05:58:14.870Z,61.4593
2023-03-29T05:59:15.033Z,62.5762
2023-03-29T06:00:15.058Z,61.7056
2023-03-29T06:01:15.810Z,62.1725
2023-03-29T06:02:15.952Z,61.7974
2023-03-29T06:03:22.553Z,61.6980
2023-03-29T06:04:23.155Z,63.1405
2023-03-29T06:05:23.331Z,62.2783
2023-03-29T06:06:24.783Z,62.1695
2023-03-29T06:07:24.939Z,62.6171
2023-03-29T06:08:25.071Z,63.4254
2023-03-29T06:09:25.355Z,62.8950
2023-03-29T06:16:29.731Z,60.9594
2023-03-29T06:17:30.226Z,61.4940
2023-03-29T06:18:30.814Z,62.8918
2023-03-29T06:19:30.843Z,61.1138
2023-03-29T06:20:30.931Z,60.4627
2023-03-29T06:21:31.127Z,58.6855
2023-03-29T06:22:32.498Z,58.9476
2023-03-29T06:23:32.572Z,58.5598
2023-03-29T06:24:33.023Z,58.1595
2023-03-29T06:25:34.114Z,59.2068
2023-03-29T06:26:34.399Z,59.5981
2023-03-29T06:27:34.497Z,60.6650
2023-03-29T06:28:34.540Z,58.0455
2023-03-29T06:29:34.786Z,59.8603
2023-03-29T06:30:35.747Z,60.0364
2023-03-29T06:31:36.531Z,60.8905
2023-03-29T06:32:36.874Z,59.2394
2023-03-29T06:33:37.047Z,61.8887
2023-03-29T06:34:38.576Z,61.2518
2023-03-29T06:35:37.599Z,58.0861
2023-03-29T06:36:37.692Z,60.0469
2023-03-29T06:37:37.910Z,59.3072
2023-03-29T06:38:37.927Z,58.6520
2023-03-29T06:39:38.173Z,58.4949
2023-03-29T06:40:38.203Z,59.4155
2023-03-29T06:41:38.231Z,59.0360
2023-03-29T06:42:38.379Z,58.2193
2023-03-29T06:43:38.393Z,59.0295
2023-03-29T06:44:38.414Z,58.1783
2023-03-29T06:45:38.668Z,57.8900
2023-03-29T06:46:39.019Z,56.1010
2023-03-29T06:47:39.086Z,57.3976
2023-03-29T06:48:39.362Z,57.1008
2023-03-29T06:49:39.387Z,57.8161
2023-03-29T06:50:39.493Z,57.3834
2023-03-29T06:51:39.532Z,57.0686
2023-03-29T06:52:39.731Z,56.9392
2023-03-29T06:53:41.104Z,58.0468
2023-03-29T06:54:41.260Z,59.9284
2023-03-29T06:55:41.661Z,57.7077
2023-03-29T06:56:43.121Z,58.3485
2023-03-29T06:57:43.635Z,58.6385
2023-03-29T06:58:43.681Z,58.2209
2023-03-29T06:59:43.955Z,56.4266
2023-03-29T07:00:44.403Z,56.7369
2023-03-29T07:01:44.854Z,55.8919
2023-03-29T07:02:44.906Z,56.6256
2023-03-29T07:03:46.732Z,57.8359
2023-03-29T07:04:47.149Z,56.7345
2023-03-29T07:05:47.428Z,56.4242
2023-03-29T07:06:47.476Z,56.6195
2023-03-29T07:07:47.764Z,58.1448
2023-03-29T07:08:47.956Z,58.9846
2023-03-29T07:09:48.006Z,58.8293
2023-03-29T07:10:48.121Z,62.7286
2023-03-29T07:11:48.332Z,64.8122
2023-03-29T07:12:48.516Z,66.3828
2023-03-29T07:13:49.043Z,65.1176
2023-03-29T07:14:49.124Z,65.3003
2023-03-29T07:15:49.242Z,68.6126
2023-03-29T07:16:49.326Z,67.1928
2023-03-29T07:17:49.548Z,68.0270
2023-03-29T07:18:49.565Z,68.6891
2023-03-29T07:19:49.636Z,69.0745
2023-03-29T07:20:49.815Z,69.5843
2023-03-29T07:21:49.852Z,68.5004
2023-03-29T07:22:49.862Z,69.3919
2023-03-29T07:23:50.079Z,68.7487
2023-03-29T07:24:50.085Z,67.8728
2023-03-29T07:25:50.114Z,67.1710
2023-03-29T07:27:03.261Z,68.2104
2023-03-29T07:27:50.684Z,68.5687
2023-03-29T07:28:50.730Z,67.6333
2023-03-29T07:29:50.877Z,67.7237
2023-03-29T07:30:51.569Z,67.1010
2023-03-29T07:31:51.778Z,68.1751
2023-03-29T07:32:52.234Z,68.1807
2023-03-29T07:33:53.332Z,66.4004
2023-03-29T07:34:53.446Z,68.7536
2023-03-29T07:35:53.518Z,68.4508
2023-03-29T07:36:53.781Z,68.6633
2023-03-29T07:37:53.781Z,68.2924
2023-03-29T07:38:56.301Z,68.6224
2023-03-29T07:39:55.289Z,68.0823
2023-03-29T07:40:55.504Z,68.6635
2023-03-29T07:41:55.532Z,69.4449
2023-03-29T07:42:55.561Z,68.1590
2023-03-29T07:43:55.718Z,63.6825
2023-03-29T07:44:55.734Z,63.9606
2023-03-29T07:45:55.989Z,67.0796
2023-03-29T07:46:56.170Z,66.0666
2023-03-29T07:47:56.478Z,66.7399
2023-03-29T07:48:56.658Z,66.3368
2023-03-29T07:49:57.000Z,61.2715
2023-03-29T07:50:57.082Z,64.9125
2023-03-29T07:51:57.848Z,68.6698
2023-03-29T07:52:58.126Z,66.9765
2023-03-29T07:53:58.255Z,66.2076
2023-03-29T07:54:58.495Z,67.1037
2023-03-29T07:55:58.590Z,64.4034
2023-03-29T07:56:58.826Z,63.0347
2023-03-29T07:57:59.167Z,62.1513
2023-03-29T07:58:59.321Z,62.9238
2023-03-29T07:59:59.548Z,62.4575
2023-03-29T08:00:59.772Z,60.7875
2023-03-29T08:02:00.918Z,60.3075
2023-03-29T08:03:01.040Z,63.4170
2023-03-29T08:04:01.414Z,63.7128
2023-03-29T08:05:01.983Z,62.5361
2023-03-29T08:06:02.585Z,64.1092
2023-03-29T08:07:02.730Z,64.1046
2023-03-29T08:08:02.830Z,64.6327
2023-03-29T08:09:03.122Z,64.3318
2023-03-29T08:10:03.314Z,61.9833
2023-03-29T08:11:03.687Z,63.7613
2023-03-29T08:12:04.020Z,62.4455
2023-03-29T08:13:04.089Z,60.8538
2023-03-29T08:14:04.248Z,63.5049
2023-03-29T08:15:04.432Z,64.5324
2023-03-29T08:16:04.842Z,65.7891
2023-03-29T08:17:05.130Z,64.1526
2023-03-29T08:18:05.904Z,63.2150
2023-03-29T08:19:06.711Z,65.3809
2023-03-29T08:20:07.307Z,65.7440
2023-03-29T08:21:07.901Z,64.6969
2023-03-29T08:22:07.924Z,65.4421
2023-03-29T08:23:08.234Z,64.9356
2023-03-29T08:24:08.507Z,66.2424
2023-03-29T08:25:09.779Z,65.4641
2023-03-29T08:26:09.924Z,65.0816
2023-03-29T08:27:10.251Z,66.6181
2023-03-29T08:28:10.387Z,67.1641
2023-03-29T08:29:10.485Z,66.0012
2023-03-29T08:30:10.742Z,65.4554
2023-03-29T08:31:11.417Z,66.1003
2023-03-29T08:32:11.654Z,64.6515
2023-03-29T08:33:12.058Z,64.7230
2023-03-29T08:34:12.501Z,62.7017
2023-03-29T08:35:12.715Z,65.1505
2023-03-29T08:36:13.044Z,63.1979
2023-03-29T08:37:13.140Z,62.5621
2023-03-29T08:38:13.333Z,62.7604
2023-03-29T08:39:13.646Z,62.1858
2023-03-29T08:40:13.712Z,62.5563
2023-03-29T08:41:14.553Z,62.2686
2023-03-29T08:42:14.585Z,62.1806
2023-03-29T08:43:14.662Z,62.4136
2023-03-29T08:44:14.938Z,61.6643
2023-03-29T08:45:15.006Z,60.9489
2023-03-29T08:46:15.317Z,60.5553
2023-03-29T08:47:16.202Z,59.6894
2023-03-29T08:48:16.663Z,60.7167
2023-03-29T08:49:16.830Z,61.3506
2023-03-29T08:50:16.952Z,62.6619
2023-03-29T08:51:18.016Z,58.5489
2023-03-29T08:52:18.174Z,61.5946
2023-03-29T08:53:19.409Z,62.3388
2023-03-29T08:54:19.569Z,61.4660
2023-03-29T08:55:19.904Z,58.9992
2023-03-29T08:56:20.051Z,58.5092
2023-03-29T08:57:20.710Z,60.2814
2023-03-29T08:58:20.860Z,57.7199
2023-03-29T08:59:21.318Z,60.0284
2023-03-29T09:00:21.406Z,60.1294
2023-03-29T09:01:21.521Z,59.0817
2023-03-29T09:02:21.979Z,58.6577
2023-03-29T09:03:22.492Z,58.9387
2023-03-29T09:04:22.781Z,58.0464
2023-03-29T09:05:22.947Z,55.9524
2023-03-29T09:06:23.212Z,57.0033
2023-03-29T09:07:26.463Z,56.7136
2023-03-29T09:08:24.041Z,58.1378
2023-03-29T09:09:25.004Z,57.8160
2023-03-29T09:10:25.210Z,56.5818
2023-03-29T09:11:25.512Z,57.3323
2023-03-29T09:12:25.612Z,56.8622
2023-03-29T09:13:25.935Z,57.3670
2023-03-29T09:14:26.091Z,57.9218
2023-03-29T09:15:26.395Z,57.9492
2023-03-29T09:16:26.486Z,58.0767
2023-03-29T09:17:27.128Z,59.0629
2023-03-29T09:18:27.464Z,59.3812
2023-03-29T09:19:27.659Z,58.0176
2023-03-29T09:20:28.010Z,59.7216
2023-03-29T09:21:28.217Z,60.9123
2023-03-29T09:22:28.297Z,61.6624
2023-03-29T09:23:28.542Z,59.5797
2023-03-29T09:24:28.881Z,59.7436
2023-03-29T09:25:29.094Z,58.7951
2023-03-29T09:26:29.490Z,61.0880
2023-03-29T09:27:29.750Z,59.3679
2023-03-29T09:28:29.907Z,59.8685
2023-03-29T09:29:31.238Z,59.1974
2023-03-29T09:30:31.372Z,59.5735
2023-03-29T09:31:31.817Z,58.6692
2023-03-29T09:32:31.961Z,59.0135
2023-03-29T09:33:32.216Z,59.1855
2023-03-29T09:34:32.324Z,59.9553
2023-03-29T09:35:32.463Z,60.5770
2023-03-29T09:36:32.758Z,59.9701
2023-03-29T09:37:32.869Z,60.2758
2023-03-29T09:38:33.221Z,60.6460
2023-03-29T09:39:33.237Z,59.8264
2023-03-29T09:40:33.359Z,62.3909
2023-03-29T09:41:33.603Z,61.6379
2023-03-29T09:42:33.717Z,59.8293
2023-03-29T09:43:33.768Z,61.2828
2023-03-29T09:44:33.976Z,58.9479
2023-03-29T09:45:34.121Z,61.1652
2023-03-29T09:46:34.520Z,60.1261
2023-03-29T09:47:34.658Z,61.2640
2023-03-29T09:48:35.251Z,59.2877
2023-03-29T09:49:35.356Z,58.5678
2023-03-29T09:50:35.918Z,58.6035
2023-03-29T09:51:36.007Z,58.7520
2023-03-29T09:52:36.315Z,58.4841
2023-03-29T09:53:36.485Z,58.7753
2023-03-29T09:54:36.809Z,58.8982
2023-03-29T09:55:37.073Z,58.3771
2023-03-29T09:56:37.338Z,57.8309
2023-03-29T09:57:37.525Z,58.4294
2023-03-29T09:58:37.894Z,60.1811
2023-03-29T09:59:38.017Z,60.7009
2023-03-29T10:00:38.141Z,59.7414
2023-03-29T10:01:38.794Z,59.3570
2023-03-29T10:02:39.302Z,57.2973
2023-03-29T10:03:39.529Z,58.3292
2023-03-29T10:04:39.994Z,60.0336
2023-03-29T10:05:40.122Z,59.5882
2023-03-29T10:06:40.214Z,59.1834
2023-03-29T10:07:40.434Z,59.3253
2023-03-29T10:08:41.838Z,57.9502
2023-03-29T10:09:42.152Z,57.0701
2023-03-29T10:10:42.567Z,58.5529
2023-03-29T10:11:42.893Z,57.7333
2023-03-29T10:12:43.265Z,57.0558
2023-03-29T10:13:43.366Z,57.5042
2023-03-29T10:14:43.532Z,57.1681
2023-03-29T10:15:44.550Z,57.0684
2023-03-29T10:16:44.775Z,55.7348
2023-03-29T10:17:45.143Z,56.6202
2023-03-29T10:18:45.370Z,59.1982
2023-03-29T10:19:45.650Z,57.0739
2023-03-29T10:20:45.854Z,57.0220
2023-03-29T10:21:46.156Z,56.5308
2023-03-29T10:22:46.300Z,57.8127
2023-03-29T10:23:46.763Z,55.2153
2023-03-29T10:24:46.862Z,56.5578
2023-03-29T10:25:47.135Z,57.2417
2023-03-29T10:26:47.320Z,58.2660
2023-03-29T10:27:47.827Z,58.3262
2023-03-29T10:28:48.049Z,57.7632
2023-03-29T10:29:48.413Z,55.7256
2023-03-29T10:30:48.690Z,55.0617
2023-03-29T10:31:49.257Z,55.4514
2023-03-29T10:32:49.804Z,53.7024
2023-03-29T10:33:50.038Z,55.6233
2023-03-29T10:34:50.515Z,53.7995
2023-03-29T10:35:50.738Z,54.2258
2023-03-29T10:36:51.103Z,54.9573
2023-03-29T10:37:51.581Z,54.3143
2023-03-29T10:38:52.004Z,52.2624
2023-03-29T10:39:52.292Z,50.4138
2023-03-29T10:40:52.723Z,52.7281
2023-03-29T10:41:53.114Z,54.0021
2023-03-29T10:42:53.226Z,51.7133
2023-03-29T10:43:54.376Z,50.4517
2023-03-29T10:44:54.835Z,53.1016
2023-03-29T10:45:55.522Z,52.8153
2023-03-29T10:46:56.782Z,54.6595
2023-03-29T10:47:57.117Z,53.9947
2023-03-29T10:48:57.520Z,53.8006
2023-03-29T10:49:58.652Z,55.0067
2023-03-29T10:50:59.032Z,51.2858
2023-03-29T10:51:59.219Z,47.7804
2023-03-29T10:52:59.806Z,50.1576
2023-03-29T10:54:00.048Z,51.1544
2023-03-29T10:55:00.563Z,52.2835
2023-03-29T10:56:00.757Z,57.0134
2023-03-29T10:57:01.139Z,55.0454
2023-03-29T10:58:01.588Z,55.0468
2023-03-29T10:59:01.811Z,57.6956
2023-03-29T11:00:02.265Z,57.0875
2023-03-29T11:01:02.778Z,58.5782
2023-03-29T11:02:03.539Z,57.9613
2023-03-29T11:03:04.236Z,60.9693
2023-03-29T11:04:05.488Z,60.5327
2023-03-29T11:05:06.067Z,61.0999
2023-03-29T11:06:06.441Z,58.5860
2023-03-29T11:07:06.858Z,58.9359
2023-03-29T11:08:07.086Z,57.1746
2023-03-29T11:09:07.440Z,55.5930
2023-03-29T11:10:07.870Z,56.5401
2023-03-29T11:11:08.348Z,54.4529
2023-03-29T11:12:15.583Z,53.7959
2023-03-29T11:13:09.668Z,54.0314
2023-03-29T11:14:10.476Z,51.7241
2023-03-29T11:15:10.662Z,50.8324
2023-03-29T11:16:11.089Z,51.1120
2023-03-29T11:17:11.330Z,51.9739
2023-03-29T11:18:11.722Z,50.1352
2023-03-29T11:19:12.106Z,51.2923
2023-03-29T11:20:12.530Z,50.2097
2023-03-29T11:21:12.928Z,51.0296
2023-03-29T11:22:13.101Z,50.0439
2023-03-29T11:23:13.506Z,48.4907
2023-03-29T11:24:13.708Z,50.8497
2023-03-29T11:25:14.124Z,49.9087
2023-03-29T11:26:14.490Z,50.2943
2023-03-29T11:27:14.704Z,49.8033
2023-03-29T11:28:15.133Z,47.8212
2023-03-29T11:29:15.289Z,44.8603
2023-03-29T11:30:15.950Z,45.8545
2023-03-29T11:31:16.793Z,48.3252
2023-03-29T11:32:17.112Z,44.1339
2023-03-29T11:33:18.039Z,43.5370
2023-03-29T11:34:18.301Z,44.5810
2023-03-29T11:35:18.678Z,44.3610
2023-03-29T11:36:19.200Z,43.7139
2023-03-29T11:37:19.416Z,40.9474
2023-03-29T11:38:19.940Z,42.1950
2023-03-29T11:39:20.404Z,44.4543
2023-03-29T11:40:20.691Z,44.3985
2023-03-29T11:41:21.109Z,41.9516
2023-03-29T11:42:21.317Z,42.7370
2023-03-29T11:43:21.629Z,41.7472
2023-03-29T11:44:22.008Z,40.7308
2023-03-29T11:45:22.255Z,40.5999
2023-03-29T11:46:22.847Z,42.2013
2023-03-29T11:47:23.511Z,44.8503
2023-03-29T11:48:24.112Z,46.9555
2023-03-29T11:49:24.546Z,45.5008
2023-03-29T11:50:25.975Z,46.5776
2023-03-29T11:51:26.154Z,44.2944
2023-03-29T11:52:26.509Z,44.5646
2023-03-29T11:53:26.769Z,45.1524
2023-03-29T11:54:27.164Z,46.4338
2023-03-29T11:55:27.979Z,45.6437
2023-03-29T11:56:28.253Z,47.5389
2023-03-29T11:57:28.809Z,48.9499
2023-03-29T11:58:29.373Z,47.4308
2023-03-29T11:59:29.667Z,49.2715
2023-03-29T12:00:30.039Z,48.6516
2023-03-29T12:01:30.484Z,48.3783
2023-03-29T12:02:31.249Z,51.1810
2023-03-29T12:03:31.911Z,50.3482
2023-03-29T12:04:33.120Z,50.6349
2023-03-29T12:05:33.531Z,50.6161
2023-03-29T12:06:33.786Z,49.6527
2023-03-29T12:07:34.205Z,48.8851
2023-03-29T12:08:34.539Z,49.0711
2023-03-29T12:09:34.731Z,50.5191
2023-03-29T12:10:35.177Z,50.8302
2023-03-29T12:11:35.352Z,52.7988
2023-03-29T12:12:36.280Z,51.4989
2023-03-29T12:13:36.669Z,52.2664
2023-03-29T12:14:37.348Z,51.7883
2023-03-29T12:15:37.791Z,50.9658
2023-03-29T12:16:38.104Z,52.5266
2023-03-29T12:17:38.739Z,52.7824
2023-03-29T12:18:39.691Z,54.4390
2023-03-29T12:19:42.658Z,52.2325
2023-03-29T12:20:41.183Z,52.0217
2023-03-29T12:21:42.065Z,52.9131
2023-03-29T12:22:42.531Z,50.7072
2023-03-29T12:23:42.711Z,52.9807
2023-03-29T12:24:43.064Z,52.8853
2023-03-29T12:25:43.669Z,53.6420
2023-03-29T12:26:43.927Z,56.2115
2023-03-29T12:27:44.286Z,55.1056
2023-03-29T12:28:44.651Z,54.8255
2023-03-29T12:29:44.954Z,55.5461
2023-03-29T12:30:45.358Z,54.8149
2023-03-29T12:31:45.868Z,55.6973
2023-03-29T12:32:46.473Z,55.6047
2023-03-29T12:33:46.883Z,52.3346
2023-03-29T12:34:47.226Z,52.4295
2023-03-29T12:35:47.535Z,51.7051
2023-03-29T12:36:47.902Z,52.4357
2023-03-29T12:37:48.140Z,52.7756
2023-03-29T12:38:48.486Z,52.1142
2023-03-29T12:39:48.898Z,53.7899
2023-03-29T12:40:49.260Z,53.4256
2023-03-29T12:41:49.584Z,52.2115
2023-03-29T12:42:49.858Z,49.8617
2023-03-29T12:43:50.317Z,51.7047
2023-03-29T12:44:50.866Z,52.5685
2023-03-29T12:45:51.187Z,52.3158
2023-03-29T12:46:52.293Z,53.2821
2023-03-29T12:47:52.763Z,52.4676
2023-03-29T12:48:53.207Z,48.0204
2023-03-29T12:49:53.825Z,46.4235
2023-03-29T12:50:54.051Z,42.2953
2023-03-29T12:51:54.454Z,47.7277
2023-03-29T12:52:54.923Z,48.4326
2023-03-29T12:53:55.115Z,47.2300
2023-03-29T12:54:55.465Z,48.1861
2023-03-29T12:55:55.921Z,50.2304
2023-03-29T12:56:56.685Z,50.7950
2023-03-29T12:57:57.024Z,50.2623
2023-03-29T12:58:57.241Z,54.2751
2023-03-29T12:59:57.662Z,54.0601
2023-03-29T13:00:58.210Z,53.1908
2023-03-29T13:01:58.917Z,54.0301